Airfield :
LOGIN :

Register | Disclaimer

   EN    FR    IT 

 










Legend :    VFR   Marginal VFR   IFR   Intensive IFR   Very Intensive IFR
Visi :
Ceiling :
>= 8 km
>= 3000ft
5 to 8 km
1000 to 3000 ft
1500m to 5 km
500 to 1000 ft
800 to 1500m
200 to 500 ft
< 800m
< 200 ft
Symbols :   Thunderstorms  Fog  Heavy snow  Heavy precipitations  Wind > 20 kt
SIGMETs :     Misc.  Thunderstorms  Icing  Turbulence  Mountain Waves  Volcanic Ashes







- Airport Elevation : 268 ft
- IATA code : BFS
- Download approach charts


EGAA - Belfast Aldergrove

CURRENT METAR :
  • 191350Z 24028G40KT 9999 FEW030 BKN035 13/06 Q0998

EXPIRED METARs :
  • 191320Z 24029G41KT 9999 FEW030 BKN035 13/08 Q0997
  • 191250Z 24028KT 9999 FEW023 BKN028 12/09 Q0996
  • 191220Z 24033G47KT 9999 FEW020 BKN025 13/08 Q0994
  • 191150Z 24032G44KT 9000 R25/0500 -RA BKN016 BKN030 12/10 Q0992
  • 191120Z 23030G51KT 9999 SCT022 BKN027 12/09 Q0990

TAF TAF EGAA
Valid from the 19 at 12:00 until the 20 at 12:00 UTC


191103Z 1912/2012 24030G45KT 9999 FEW020 SCT035
PROB30
TEMPO 1912/1916 24037G55KT
PROB30
TEMPO 1912/1921 6000 SHRA
BECMG 1916/1919 24021G33KT
BECMG 1923/2002 22015KT
No reported NOTAMs for that airfield.
2 SIGMETs reported for the Scottish FIR (EGPX) :
 
Severe mountain waves
EGPX SIGMET 10 VALID 191300/191700 EGRR
EGPX SCOTTISH FIR SEV MTW FCST WI N5646 W00124 - N5500 E00108 - N5500 W00530 - N5355 W00530 - N5514 W00847 - N6100 W00250 - N6100 E00000 - N6000 E00000 - N5959 E00002 - N5646 W00124 FL030/250 STNR NC=
Severe turbulence
EGPX SIGMET 09 VALID 191300/191700 EGRR
EGPX SCOTTISH FIR SEV TURB FCST SE OF LINE N5633 W01000 - N6049 E00000 SFC/FL060 STNR NC=



MET'MAP, your aeronautical weather chart ! - Copyright ORBIFLY December 2007 - Disclaimer

ORBIFLY MET'MAP TEAM :

Programming & Development : Alexandra Zaïnal
Concept & Development : Baudouin d'Aumeries
Co-Development & Prog : Marc-Olivier Méhu
Technical & hardware support : Manuel Goepfert

Contact : metmap@orbifly.com




SOURCES & CREDITS :

   NOAA